VTSE/CJM METAR and TAF weather

Enter ICAO airport designator
Station Type Date Time Source
VTSE METAR 2022/06/30 01:00 UTC NOAA

VTSE 300100Z 25004KT 210V280 9999 FEW020 27/24 Q1005 NOSIG


Station Type Date Time Source
VTSE Decoded METAR 2022/06/30 01:00 UTC NOAA

Station name not available
Jun 29, 2022 - 09:00 PM EDT / 2022.06.30 0100 UTC
Wind: from the WSW (250 degrees) at 5 MPH (4 KT) (direction variable):0
Visibility: greater than 7 mile(s):0
Sky conditions: mostly clear
Temperature: 80 F (27 C)
Dew Point: 75 F (24 C)
Relative Humidity: 83%
Pressure (altimeter): 29.68 in. Hg (1005 hPa)
ob: VTSE 300100Z 25004KT 210V280 9999 FEW020 27/24 Q1005 NOSIG
cycle: 1

Station Type Date Time Source
VTSE TAF 2022/06/29 18:00 UTC NOAA

TAF VTSE 291700Z 2918/3018 28003KT 9999 SCT020
TEMPO 3006/3012 VRB15G25KT 4000 TSRA FEW016CB SCT018 BKN100

Example: see airport list